Time;durP1;ratioP1;P1;durP2;ratioP2;P2;SDS_P1;SDS_P2;PMS_P1;PMS_P2;Temp;Humidity;BMP_temperature;BMP_pressure;BME280_temperature;BME280_humidity;BME280_pressure;Samples;Min_cycle;Max_cycle;Signal;HPM_P1;HPM_P2
2021/09/27 00:02:15;;;;;;;15.30;10.87;;;;;;;;;;4985041;28;20218;-85
2021/09/27 00:05:46;;;;;;;12.93;10.27;;;;;;;;;;4988543;28;20210;-84
2021/09/27 00:13:25;;;;;;;14.33;10.67;;;;;;;;;;5000372;28;20197;-86
2021/09/27 00:16:30;;;;;;;14.53;10.87;;;;;;;;;;4981826;28;20193;-86
2021/09/27 00:19:36;;;;;;;14.87;11.03;;;;;;;;;;4992955;28;20189;-85
2021/09/27 00:22:41;;;;;;;14.13;10.67;;;;;;;;;;5006096;28;20663;-86
2021/09/27 00:25:46;;;;;;;12.87;10.13;;;;;;;;;;4992655;28;20221;-86
2021/09/27 00:33:11;;;;;;;14.60;10.63;;;;;;;;;;4996618;28;20183;-85
2021/09/27 00:36:17;;;;;;;14.43;11.53;;;;;;;;;;4993671;28;20204;-84
2021/09/27 00:39:58;;;;;;;15.90;11.90;;;;;;;;;;4993217;28;20203;-86
2021/09/27 00:43:03;;;;;;;13.63;11.27;;;;;;;;;;4992798;28;20204;-86
2021/09/27 00:46:11;;;;;;;14.57;10.57;;;;;;;;;;4991954;28;20232;-86
2021/09/27 00:49:15;;;;;;;13.77;10.93;;;;;;;;;;4992313;28;20224;-86
2021/09/27 00:52:19;;;;;;;14.43;10.93;;;;;;;;;;4978986;28;20189;-86
2021/09/27 00:55:25;;;;;;;14.23;11.50;;;;;;;;;;4998046;28;20666;-85
2021/09/27 00:58:31;;;;;;;13.30;10.40;;;;;;;;;;4991954;28;20232;-86
2021/09/27 01:01:36;;;;;;;14.40;10.80;;;;;;;;;;4983692;28;20217;-86
2021/09/27 01:04:40;;;;;;;13.67;10.57;;;;;;;;;;4988177;28;20667;-86
2021/09/27 01:08:03;;;;;;;13.63;10.07;;;;;;;;;;5002139;28;20229;-86
2021/09/27 01:11:23;;;;;;;12.07;10.07;;;;;;;;;;4993360;28;20188;-84
2021/09/27 01:14:53;;;;;;;12.73;10.13;;;;;;;;;;4981299;28;20671;-84
2021/09/27 01:18:22;;;;;;;12.33;9.57;;;;;;;;;;4981886;28;20216;-86
2021/09/27 01:21:46;;;;;;;9.63;8.30;;;;;;;;;;4986893;28;20181;-86
2021/09/27 01:25:15;;;;;;;11.33;9.23;;;;;;;;;;4991672;28;20657;-86
2021/09/27 01:28:54;;;;;;;10.57;8.10;;;;;;;;;;5002809;28;20220;-87
2021/09/27 01:32:42;;;;;;;9.60;8.60;;;;;;;;;;5001093;28;20166;-85
2021/09/27 01:36:24;;;;;;;13.37;8.43;;;;;;;;;;4982387;28;20529;-86
2021/09/27 01:39:42;;;;;;;14.17;9.67;;;;;;;;;;4992857;28;20552;-86
2021/09/27 01:43:03;;;;;;;10.20;8.43;;;;;;;;;;4993194;28;20645;-84
2021/09/27 01:46:28;;;;;;;12.30;8.87;;;;;;;;;;4977700;28;20252;-86
2021/09/27 01:54:29;;;;;;;11.40;8.80;;;;;;;;;;4996480;28;20183;-84
2021/09/27 01:58:23;;;;;;;13.33;9.40;;;;;;;;;;4985516;28;20222;-86
2021/09/27 02:01:34;;;;;;;12.80;9.20;;;;;;;;;;4995060;28;20546;-86
2021/09/27 02:05:06;;;;;;;11.70;9.43;;;;;;;;;;4994862;28;20676;-86
2021/09/27 02:08:18;;;;;;;12.57;10.00;;;;;;;;;;4991189;28;20739;-86
2021/09/27 02:11:26;;;;;;;14.13;10.00;;;;;;;;;;4991603;28;20556;-86
2021/09/27 02:14:41;;;;;;;14.97;10.27;;;;;;;;;;4972248;28;20677;-86
2021/09/27 02:17:52;;;;;;;14.47;9.97;;;;;;;;;;4976923;28;20228;-86
2021/09/27 02:21:03;;;;;;;13.67;10.27;;;;;;;;;;4991221;28;20201;-86
2021/09/27 02:24:16;;;;;;;11.90;9.50;;;;;;;;;;4979361;28;20560;-86
2021/09/27 02:27:21;;;;;;;16.70;11.13;;;;;;;;;;4993829;28;20218;-87
2021/09/27 02:30:40;;;;;;;14.17;9.90;;;;;;;;;;4984268;28;20192;-86
2021/09/27 02:34:02;;;;;;;11.80;9.90;;;;;;;;;;4979820;28;20201;-87
2021/09/27 02:37:16;;;;;;;12.17;9.93;;;;;;;;;;4995338;28;20177;-86
2021/09/27 02:40:38;;;;;;;12.17;10.03;;;;;;;;;;4995077;28;20177;-86
2021/09/27 02:43:44;;;;;;;11.63;9.63;;;;;;;;;;4987054;28;20197;-87
2021/09/27 02:46:54;;;;;;;11.50;8.80;;;;;;;;;;5013399;28;20222;-86
2021/09/27 02:50:05;;;;;;;19.93;9.17;;;;;;;;;;4994837;28;20190;-86
2021/09/27 02:53:11;;;;;;;13.13;9.53;;;;;;;;;;4974939;28;20194;-87
2021/09/27 02:56:43;;;;;;;13.47;9.93;;;;;;;;;;5003585;28;20185;-87
2021/09/27 03:00:05;;;;;;;14.10;8.57;;;;;;;;;;5045675;23;20236;-85
2021/09/27 03:03:17;;;;;;;10.13;8.83;;;;;;;;;;5002231;28;20628;-85
2021/09/27 03:06:43;;;;;;;11.37;9.40;;;;;;;;;;4982158;28;20225;-85
2021/09/27 03:10:03;;;;;;;12.97;9.27;;;;;;;;;;4998290;28;20224;-85
2021/09/27 03:13:13;;;;;;;12.20;8.80;;;;;;;;;;4992789;28;20205;-85
2021/09/27 03:16:35;;;;;;;14.80;8.87;;;;;;;;;;4992896;28;20196;-85
2021/09/27 03:20:01;;;;;;;9.87;8.53;;;;;;;;;;5012405;28;20221;-85
2021/09/27 03:23:26;;;;;;;11.70;9.37;;;;;;;;;;5001727;28;20185;-85
2021/09/27 03:26:58;;;;;;;12.13;9.03;;;;;;;;;;5012548;28;20675;-85
2021/09/27 03:30:09;;;;;;;11.03;8.60;;;;;;;;;;5001085;28;20383;-85
2021/09/27 03:33:30;;;;;;;12.50;9.87;;;;;;;;;;4993029;28;20513;-85
2021/09/27 03:36:59;;;;;;;12.03;9.70;;;;;;;;;;4995939;28;20189;-85
2021/09/27 03:40:58;;;;;;;12.37;10.17;;;;;;;;;;5013141;28;20185;-84
2021/09/27 03:44:28;;;;;;;13.87;10.33;;;;;;;;;;5002499;28;20703;-84
2021/09/27 03:47:52;;;;;;;14.90;11.00;;;;;;;;;;5009932;28;20709;-85
2021/09/27 03:51:02;;;;;;;15.47;10.83;;;;;;;;;;5001553;28;20184;-85
2021/09/27 03:54:06;;;;;;;19.43;12.13;;;;;;;;;;5023238;28;20208;-85
2021/09/27 03:57:26;;;;;;;14.87;11.17;;;;;;;;;;5001092;28;20180;-84
2021/09/27 04:01:06;;;;;;;14.90;10.27;;;;;;;;;;4999885;28;20200;-84
2021/09/27 04:04:31;;;;;;;14.87;10.10;;;;;;;;;;5000886;28;20188;-85
2021/09/27 04:07:56;;;;;;;16.07;10.53;;;;;;;;;;4991970;28;20229;-85
2021/09/27 04:11:06;;;;;;;16.47;11.00;;;;;;;;;;4982409;28;20208;-85
2021/09/27 04:14:30;;;;;;;15.20;10.33;;;;;;;;;;5001075;28;20532;-84
2021/09/27 04:17:52;;;;;;;13.27;10.57;;;;;;;;;;5001830;28;20184;-84
2021/09/27 04:21:38;;;;;;;13.87;10.70;;;;;;;;;;4993319;28;20193;-85
2021/09/27 04:25:10;;;;;;;18.93;12.33;;;;;;;;;;4954728;28;20214;-84
2021/09/27 04:28:29;;;;;;;17.70;12.53;;;;;;;;;;5011530;28;20224;-85
2021/09/27 04:31:43;;;;;;;20.57;13.97;;;;;;;;;;4980705;28;20189;-85
2021/09/27 04:35:37;;;;;;;18.60;12.70;;;;;;;;;;4987670;28;20210;-85
2021/09/27 04:38:42;;;;;;;21.50;14.60;;;;;;;;;;5000951;28;20228;-84
2021/09/27 04:42:25;;;;;;;19.10;12.30;;;;;;;;;;5023407;28;20192;-85
2021/09/27 04:45:35;;;;;;;23.23;14.40;;;;;;;;;;5022213;28;20191;-85
2021/09/27 04:48:59;;;;;;;27.73;16.20;;;;;;;;;;5001037;28;20714;-85
2021/09/27 04:52:13;;;;;;;27.00;15.67;;;;;;;;;;5011005;28;20251;-85
2021/09/27 04:55:46;;;;;;;29.83;16.03;;;;;;;;;;5010553;28;20204;-85
2021/09/27 04:59:04;;;;;;;27.10;16.03;;;;;;;;;;5010049;28;20275;-85
2021/09/27 05:02:30;;;;;;;33.63;19.50;;;;;;;;;;5010599;28;20204;-85
2021/09/27 05:05:40;;;;;;;36.10;19.23;;;;;;;;;;4999129;28;20200;-85
2021/09/27 05:09:02;;;;;;;31.43;19.03;;;;;;;;;;4995758;28;20231;-84
2021/09/27 05:12:25;;;;;;;38.60;20.20;;;;;;;;;;4987415;28;20184;-85
2021/09/27 05:16:02;;;;;;;44.63;22.77;;;;;;;;;;5010579;28;20753;-85
2021/09/27 05:19:52;;;;;;;38.33;20.73;;;;;;;;;;5010495;28;20718;-85
2021/09/27 05:23:02;;;;;;;45.20;23.23;;;;;;;;;;4972904;28;20226;-85
2021/09/27 05:26:27;;;;;;;36.40;21.73;;;;;;;;;;4977964;28;20225;-84
2021/09/27 05:29:56;;;;;;;49.67;24.40;;;;;;;;;;5002498;28;20243;-85
2021/09/27 05:33:28;;;;;;;39.13;21.77;;;;;;;;;;5010495;28;20203;-85
2021/09/27 05:37:07;;;;;;;40.37;22.37;;;;;;;;;;5011755;28;20195;-85
2021/09/27 05:40:28;;;;;;;39.50;21.93;;;;;;;;;;5039478;28;20195;-85
2021/09/27 05:43:50;;;;;;;42.47;23.23;;;;;;;;;;5018943;28;20195;-85
2021/09/27 05:47:10;;;;;;;41.47;24.13;;;;;;;;;;4979539;28;20221;-85
2021/09/27 05:50:18;;;;;;;37.43;22.13;;;;;;;;;;4979875;28;20193;-85
2021/09/27 05:53:47;;;;;;;31.67;19.80;;;;;;;;;;4979512;28;20188;-85
2021/09/27 05:57:01;;;;;;;34.03;21.20;;;;;;;;;;4990764;28;20563;-84
2021/09/27 06:00:13;;;;;;;44.63;22.03;;;;;;;;;;5009520;28;20193;-85
2021/09/27 06:03:33;;;;;;;34.40;21.17;;;;;;;;;;5001258;28;20204;-85
2021/09/27 06:06:50;;;;;;;34.37;20.80;;;;;;;;;;5007014;28;20219;-85
2021/09/27 06:10:01;;;;;;;37.00;21.50;;;;;;;;;;4983662;28;20233;-85
2021/09/27 06:13:26;;;;;;;29.70;19.23;;;;;;;;;;4999283;28;20200;-85
2021/09/27 06:16:54;;;;;;;29.70;17.73;;;;;;;;;;5003032;28;20180;-85
2021/09/27 06:20:09;;;;;;;30.27;18.13;;;;;;;;;;5002943;28;20230;-85
2021/09/27 06:23:34;;;;;;;30.63;19.50;;;;;;;;;;5002817;28;20659;-85
2021/09/27 06:26:44;;;;;;;33.00;20.13;;;;;;;;;;4983412;28;20221;-85
2021/09/27 06:30:07;;;;;;;29.53;20.47;;;;;;;;;;5005649;28;20240;-85
2021/09/27 06:33:25;;;;;;;32.83;20.10;;;;;;;;;;4982963;28;20185;-85
2021/09/27 06:36:32;;;;;;;27.23;18.30;;;;;;;;;;5013573;28;20199;-84
2021/09/27 06:39:36;;;;;;;27.20;18.40;;;;;;;;;;4995840;28;20231;-85
2021/09/27 06:42:40;;;;;;;22.87;15.93;;;;;;;;;;5002781;28;20219;-85
2021/09/27 06:45:46;;;;;;;22.77;15.93;;;;;;;;;;5006540;28;20200;-85
2021/09/27 06:48:50;;;;;;;22.37;15.50;;;;;;;;;;5013656;28;20713;-85
2021/09/27 06:51:55;;;;;;;25.93;16.03;;;;;;;;;;5002444;28;20196;-85
2021/09/27 06:55:00;;;;;;;24.87;16.20;;;;;;;;;;5013648;28;20188;-85
2021/09/27 06:58:04;;;;;;;23.37;16.57;;;;;;;;;;5013303;28;20717;-85
2021/09/27 07:01:08;;;;;;;23.07;15.97;;;;;;;;;;5002240;28;20195;-85
2021/09/27 07:04:13;;;;;;;22.07;16.33;;;;;;;;;;5001923;28;20543;-85
2021/09/27 07:07:17;;;;;;;21.37;15.43;;;;;;;;;;5001927;28;20216;-85
2021/09/27 07:10:24;;;;;;;21.40;14.70;;;;;;;;;;5013565;28;20192;-85
2021/09/27 07:13:28;;;;;;;23.53;15.43;;;;;;;;;;5000885;28;20191;-85
2021/09/27 07:16:32;;;;;;;21.67;15.83;;;;;;;;;;5001948;28;20188;-85
2021/09/27 07:19:36;;;;;;;19.30;15.23;;;;;;;;;;5001510;28;20227;-85
2021/09/27 07:22:41;;;;;;;18.23;14.20;;;;;;;;;;5012967;28;20191;-85
2021/09/27 07:25:46;;;;;;;18.00;13.67;;;;;;;;;;5012988;28;20188;-85
2021/09/27 07:28:53;;;;;;;27.13;15.37;;;;;;;;;;5012918;28;20223;-85
2021/09/27 07:31:57;;;;;;;15.00;12.27;;;;;;;;;;5001634;28;20184;-85
2021/09/27 07:35:03;;;;;;;19.03;13.47;;;;;;;;;;5001274;28;20223;-86
2021/09/27 07:38:07;;;;;;;15.47;12.73;;;;;;;;;;5012725;28;20220;-85
2021/09/27 07:41:11;;;;;;;17.03;12.87;;;;;;;;;;5012734;28;20188;-85
2021/09/27 07:44:16;;;;;;;19.40;12.93;;;;;;;;;;5012867;28;20196;-86
2021/09/27 07:47:20;;;;;;;16.60;12.17;;;;;;;;;;5012439;28;20215;-85
2021/09/27 07:50:24;;;;;;;16.60;12.47;;;;;;;;;;5001202;28;20196;-85
2021/09/27 07:53:29;;;;;;;16.63;12.60;;;;;;;;;;5001283;28;20655;-85
2021/09/27 07:56:33;;;;;;;14.70;12.30;;;;;;;;;;5010663;28;20191;-85
2021/09/27 07:59:37;;;;;;;17.93;13.20;;;;;;;;;;5020457;28;20285;-85
2021/09/27 08:02:43;;;;;;;14.40;11.20;;;;;;;;;;5032273;28;20191;-85
2021/09/27 08:05:47;;;;;;;15.43;11.60;;;;;;;;;;5021092;28;20191;-85
2021/09/27 08:08:51;;;;;;;15.33;13.10;;;;;;;;;;5031576;28;20238;-86
2021/09/27 08:11:55;;;;;;;13.63;11.43;;;;;;;;;;5043278;28;20195;-86
2021/09/27 08:14:59;;;;;;;15.13;12.43;;;;;;;;;;5020467;28;20665;-86
2021/09/27 08:18:05;;;;;;;16.63;12.13;;;;;;;;;;5031725;28;20575;-86
2021/09/27 08:21:15;;;;;;;16.07;12.93;;;;;;;;;;5030019;28;20199;-85
2021/09/27 08:24:20;;;;;;;18.03;11.60;;;;;;;;;;4997802;28;20200;-85
2021/09/27 08:27:24;;;;;;;17.13;12.13;;;;;;;;;;5011808;28;20235;-85
2021/09/27 08:30:37;;;;;;;16.37;11.37;;;;;;;;;;5000613;28;20199;-85
2021/09/27 08:33:42;;;;;;;16.47;14.07;;;;;;;;;;5001394;28;20184;-86
2021/09/27 08:36:48;;;;;;;17.60;13.43;;;;;;;;;;5012019;28;20204;-85
2021/09/27 08:39:52;;;;;;;15.40;11.77;;;;;;;;;;5001474;28;20223;-85
2021/09/27 08:42:58;;;;;;;13.87;11.73;;;;;;;;;;5001395;28;20647;-86
2021/09/27 08:46:11;;;;;;;15.27;12.37;;;;;;;;;;5000298;28;20199;-85
2021/09/27 08:49:29;;;;;;;15.20;12.03;;;;;;;;;;4992668;28;20301;-85
2021/09/27 08:52:38;;;;;;;15.13;10.70;;;;;;;;;;5003552;28;20663;-86
2021/09/27 08:55:42;;;;;;;13.07;9.90;;;;;;;;;;4988218;28;20200;-86
2021/09/27 08:58:55;;;;;;;14.47;10.43;;;;;;;;;;5003361;28;20233;-86
2021/09/27 09:02:24;;;;;;;11.90;9.57;;;;;;;;;;5021617;23;20259;-87
2021/09/27 09:05:43;;;;;;;12.83;9.17;;;;;;;;;;5012169;28;20185;-86
2021/09/27 09:09:09;;;;;;;12.33;9.10;;;;;;;;;;4991460;28;20210;-86
2021/09/27 09:12:19;;;;;;;9.97;8.97;;;;;;;;;;4971623;28;20198;-86
2021/09/27 09:15:28;;;;;;;11.00;9.43;;;;;;;;;;4976495;28;20202;-86
2021/09/27 09:18:37;;;;;;;10.50;9.23;;;;;;;;;;4979977;28;20190;-87
2021/09/27 09:21:51;;;;;;;11.13;9.03;;;;;;;;;;4983705;28;20226;-87
2021/09/27 09:24:55;;;;;;;10.37;8.57;;;;;;;;;;4991519;28;20190;-87
2021/09/27 09:28:03;;;;;;;10.37;9.27;;;;;;;;;;4983601;28;20218;-87
2021/09/27 09:31:15;;;;;;;11.30;8.67;;;;;;;;;;4965779;28;20227;-86
2021/09/27 09:34:19;;;;;;;10.73;8.73;;;;;;;;;;4976053;28;20190;-86
2021/09/27 09:37:32;;;;;;;10.73;8.70;;;;;;;;;;4992152;28;20183;-86
2021/09/27 09:40:57;;;;;;;11.70;8.50;;;;;;;;;;4992727;28;20219;-86
2021/09/27 09:44:27;;;;;;;8.57;7.00;;;;;;;;;;4992150;28;20196;-87
2021/09/27 09:47:31;;;;;;;8.85;7.03;;;;;;;;;;4986030;28;20214;-87
2021/09/27 09:50:35;;;;;;;7.85;7.05;;;;;;;;;;4971890;28;20217;-87
2021/09/27 09:53:39;;;;;;;9.48;7.18;;;;;;;;;;4979413;28;20191;-87
2021/09/27 09:57:00;;;;;;;7.32;6.63;;;;;;;;;;4991517;28;20183;-87
2021/09/27 10:00:09;;;;;;;8.43;7.43;;;;;;;;;;4990718;28;20549;-87
2021/09/27 10:03:28;;;;;;;7.38;6.68;;;;;;;;;;4990051;28;20548;-87
2021/09/27 10:07:00;;;;;;;11.40;6.10;;;;;;;;;;4991553;28;20648;-87
2021/09/27 10:10:09;;;;;;;8.40;6.25;;;;;;;;;;4991112;28;20185;-87
2021/09/27 10:13:40;;;;;;;7.82;6.65;;;;;;;;;;5013998;28;20188;-87
2021/09/27 10:16:49;;;;;;;6.75;5.70;;;;;;;;;;4991492;28;20184;-86
2021/09/27 10:20:23;;;;;;;8.45;6.30;;;;;;;;;;4991281;28;20183;-90
2021/09/27 10:23:35;;;;;;;6.68;5.53;;;;;;;;;;4982239;28;20197;-89
2021/09/27 10:26:45;;;;;;;6.75;6.00;;;;;;;;;;4981394;28;20179;-89
2021/09/27 10:29:51;;;;;;;5.57;4.90;;;;;;;;;;4982623;28;20510;-87
2021/09/27 10:33:01;;;;;;;5.30;4.80;;;;;;;;;;4988680;28;20658;-88
2021/09/27 10:36:10;;;;;;;7.00;5.20;;;;;;;;;;4989694;28;20191;-88
2021/09/27 10:39:18;;;;;;;6.80;5.90;;;;;;;;;;4974238;28;20201;-87
2021/09/27 10:42:31;;;;;;;7.30;5.97;;;;;;;;;;4980123;28;20525;-86
2021/09/27 10:45:38;;;;;;;8.30;7.50;;;;;;;;;;4987630;28;20193;-87
2021/09/27 10:48:47;;;;;;;8.90;7.75;;;;;;;;;;4993510;28;20227;-89
2021/09/27 10:52:09;;;;;;;8.20;6.97;;;;;;;;;;5010306;28;20555;-89
2021/09/27 10:55:13;;;;;;;9.27;7.80;;;;;;;;;;5005432;28;20193;-89
2021/09/27 10:58:36;;;;;;;8.10;6.75;;;;;;;;;;4974812;28;20182;-89
2021/09/27 11:01:44;;;;;;;10.82;8.10;;;;;;;;;;5001673;28;20236;-89
2021/09/27 11:04:54;;;;;;;9.40;8.43;;;;;;;;;;4975106;28;20655;-89
2021/09/27 11:08:08;;;;;;;8.97;8.07;;;;;;;;;;4988962;28;20221;-89
2021/09/27 11:11:24;;;;;;;9.60;7.93;;;;;;;;;;4976833;28;20227;-89
2021/09/27 11:14:28;;;;;;;8.30;7.50;;;;;;;;;;4985035;28;20544;-89
2021/09/27 11:17:42;;;;;;;10.33;8.37;;;;;;;;;;4974080;28;20186;-89
2021/09/27 11:20:49;;;;;;;9.70;8.07;;;;;;;;;;4992752;28;20572;-89
2021/09/27 11:24:12;;;;;;;10.60;8.50;;;;;;;;;;4992970;28;20207;-89
2021/09/27 11:27:29;;;;;;;9.03;7.90;;;;;;;;;;4992862;28;20209;-89
2021/09/27 11:30:59;;;;;;;9.20;7.50;;;;;;;;;;4992623;28;20227;-89
2021/09/27 11:34:09;;;;;;;8.80;7.97;;;;;;;;;;4993775;28;20640;-89
2021/09/27 11:37:33;;;;;;;9.90;8.03;;;;;;;;;;4993874;28;20184;-89
2021/09/27 11:40:40;;;;;;;9.27;7.07;;;;;;;;;;4992960;28;20227;-89
2021/09/27 11:44:09;;;;;;;8.27;6.97;;;;;;;;;;5004497;28;20180;-89
2021/09/27 11:47:29;;;;;;;10.57;7.00;;;;;;;;;;5004332;28;20643;-89
2021/09/27 11:50:38;;;;;;;9.87;8.03;;;;;;;;;;5004127;28;20220;-89
2021/09/27 11:54:01;;;;;;;12.23;9.67;;;;;;;;;;4992973;28;20198;-89
2021/09/27 11:57:16;;;;;;;12.07;9.03;;;;;;;;;;4993002;28;20191;-89
2021/09/27 12:00:35;;;;;;;9.77;8.63;;;;;;;;;;4990735;28;20229;-89
2021/09/27 12:04:01;;;;;;;10.53;9.50;;;;;;;;;;4980972;28;20205;-88
2021/09/27 12:07:11;;;;;;;11.20;8.27;;;;;;;;;;4978949;28;20202;-89
2021/09/27 12:10:24;;;;;;;9.07;7.07;;;;;;;;;;4962226;28;20698;-88
2021/09/27 12:13:39;;;;;;;8.93;7.97;;;;;;;;;;4995555;28;20188;-89
2021/09/27 12:16:49;;;;;;;7.70;6.70;;;;;;;;;;4995672;28;20637;-89
2021/09/27 12:20:05;;;;;;;8.87;6.87;;;;;;;;;;5005209;28;20188;-88
2021/09/27 12:23:11;;;;;;;8.03;6.90;;;;;;;;;;4994073;28;20198;-89
2021/09/27 12:26:19;;;;;;;7.40;6.60;;;;;;;;;;4973148;28;20192;-89
2021/09/27 12:29:25;;;;;;;6.83;5.93;;;;;;;;;;4988624;28;20207;-87
2021/09/27 12:32:37;;;;;;;7.30;6.00;;;;;;;;;;4981327;28;20183;-89
2021/09/27 12:35:47;;;;;;;7.27;6.47;;;;;;;;;;4973398;28;20198;-89
2021/09/27 12:38:54;;;;;;;7.63;6.17;;;;;;;;;;5009722;28;20193;-89
2021/09/27 12:42:00;;;;;;;6.25;5.65;;;;;;;;;;4980405;28;20217;-89
2021/09/27 12:45:23;;;;;;;6.65;5.68;;;;;;;;;;4975970;28;20193;-88
2021/09/27 12:48:31;;;;;;;6.20;5.53;;;;;;;;;;4972310;28;20212;-89
2021/09/27 12:51:51;;;;;;;7.25;5.68;;;;;;;;;;4987797;28;20226;-89
2021/09/27 12:54:56;;;;;;;9.00;6.05;;;;;;;;;;4997379;28;20206;-88
2021/09/27 12:58:05;;;;;;;5.43;4.93;;;;;;;;;;4991624;28;20206;-89
2021/09/27 13:01:18;;;;;;;6.47;5.70;;;;;;;;;;4992152;28;20570;-86
2021/09/27 13:04:33;;;;;;;6.45;5.72;;;;;;;;;;4996163;28;20196;-85
2021/09/27 13:07:44;;;;;;;7.03;5.72;;;;;;;;;;4980553;28;20199;-86
2021/09/27 13:10:54;;;;;;;5.55;5.05;;;;;;;;;;4980256;28;20219;-86
2021/09/27 13:14:05;;;;;;;8.38;5.95;;;;;;;;;;4991825;28;20190;-87
2021/09/27 13:17:11;;;;;;;6.65;6.00;;;;;;;;;;4991534;28;20647;-87
2021/09/27 13:20:52;;;;;;;6.40;5.70;;;;;;;;;;4988202;28;20210;-87
2021/09/27 13:24:07;;;;;;;7.50;5.78;;;;;;;;;;5002921;28;20188;-87
2021/09/27 13:27:26;;;;;;;6.43;5.45;;;;;;;;;;4988162;28;20185;-86
2021/09/27 13:30:34;;;;;;;5.45;4.97;;;;;;;;;;4981346;28;20219;-87
2021/09/27 13:33:47;;;;;;;6.30;5.35;;;;;;;;;;4974184;28;20180;-86
2021/09/27 13:36:52;;;;;;;7.53;5.43;;;;;;;;;;4989790;28;20202;-86
2021/09/27 13:40:00;;;;;;;8.63;5.93;;;;;;;;;;5002666;28;20184;-87
2021/09/27 13:43:20;;;;;;;6.35;5.18;;;;;;;;;;5002592;28;20185;-87
2021/09/27 13:46:28;;;;;;;10.80;5.53;;;;;;;;;;4991337;28;20542;-87
2021/09/27 13:49:33;;;;;;;5.97;4.90;;;;;;;;;;4991198;28;20698;-87
2021/09/27 13:52:47;;;;;;;5.78;5.13;;;;;;;;;;4971545;28;20201;-87
2021/09/27 13:55:54;;;;;;;6.30;5.18;;;;;;;;;;4987379;28;20196;-86
2021/09/27 13:58:59;;;;;;;7.60;5.00;;;;;;;;;;4992427;28;20192;-87
2021/09/27 14:02:04;;;;;;;8.35;5.30;;;;;;;;;;4991330;28;20221;-86
2021/09/27 14:05:10;;;;;;;5.63;4.95;;;;;;;;;;4992242;28;20650;-86
2021/09/27 14:08:18;;;;;;;5.15;4.75;;;;;;;;;;5002649;28;20179;-86
2021/09/27 14:11:24;;;;;;;6.03;4.93;;;;;;;;;;4991472;28;20221;-86
2021/09/27 14:14:31;;;;;;;13.23;5.10;;;;;;;;;;5003051;28;20181;-86
2021/09/27 14:17:35;;;;;;;6.43;5.37;;;;;;;;;;5002870;28;20174;-86
2021/09/27 14:20:42;;;;;;;5.30;4.80;;;;;;;;;;5002588;28;20211;-86
2021/09/27 14:23:46;;;;;;;8.77;5.33;;;;;;;;;;4995109;28;20184;-87
2021/09/27 14:26:50;;;;;;;5.10;4.60;;;;;;;;;;5006593;28;20183;-86
2021/09/27 14:29:55;;;;;;;7.67;4.80;;;;;;;;;;4994583;28;20224;-86
2021/09/27 14:32:58;;;;;;;5.73;5.00;;;;;;;;;;4995172;28;20207;-86
2021/09/27 14:36:03;;;;;;;6.17;5.00;;;;;;;;;;5006103;28;20182;-86
2021/09/27 14:39:07;;;;;;;6.40;4.67;;;;;;;;;;4995666;28;20180;-86
2021/09/27 14:42:11;;;;;;;5.80;4.90;;;;;;;;;;5006278;28;20213;-86
2021/09/27 14:45:17;;;;;;;5.37;4.87;;;;;;;;;;5006761;28;20186;-86
2021/09/27 14:48:21;;;;;;;6.67;4.97;;;;;;;;;;4995122;28;20174;-86
2021/09/27 14:51:25;;;;;;;8.37;5.23;;;;;;;;;;4994735;28;20213;-86
2021/09/27 14:54:29;;;;;;;5.73;5.13;;;;;;;;;;4994975;28;20201;-86
2021/09/27 14:57:34;;;;;;;5.27;4.73;;;;;;;;;;4994702;28;20540;-86
2021/09/27 15:00:39;;;;;;;7.70;5.40;;;;;;;;;;5018632;22;20207;-87
2021/09/27 15:03:49;;;;;;;6.10;5.20;;;;;;;;;;5005379;28;20183;-86
2021/09/27 15:06:53;;;;;;;10.40;5.80;;;;;;;;;;4994134;28;20176;-87
2021/09/27 15:09:58;;;;;;;20.53;5.43;;;;;;;;;;5004706;28;20226;-86
2021/09/27 15:13:02;;;;;;;11.00;5.33;;;;;;;;;;4974697;28;20202;-87
2021/09/27 15:16:08;;;;;;;11.80;5.30;;;;;;;;;;4985346;28;20176;-87
2021/09/27 15:19:12;;;;;;;9.33;5.57;;;;;;;;;;4972954;28;20203;-87
2021/09/27 15:22:17;;;;;;;7.47;5.00;;;;;;;;;;4962693;28;20693;-87
2021/09/27 15:25:29;;;;;;;9.70;5.13;;;;;;;;;;4972217;28;20646;-87
2021/09/27 15:28:33;;;;;;;7.77;5.50;;;;;;;;;;4963393;28;20190;-87
2021/09/27 15:31:44;;;;;;;7.73;5.80;;;;;;;;;;4954708;28;20214;-88
2021/09/27 15:34:50;;;;;;;8.30;5.70;;;;;;;;;;4964767;28;20202;-87
2021/09/27 15:37:54;;;;;;;11.67;5.17;;;;;;;;;;4963641;28;20188;-87
2021/09/27 15:40:58;;;;;;;14.50;5.73;;;;;;;;;;4951009;28;20222;-87
2021/09/27 15:44:04;;;;;;;11.87;6.20;;;;;;;;;;4979823;28;20534;-87
2021/09/27 15:47:12;;;;;;;6.77;5.43;;;;;;;;;;4959612;28;20211;-87
2021/09/27 15:50:16;;;;;;;8.50;5.47;;;;;;;;;;4975607;28;20210;-87
2021/09/27 15:53:20;;;;;;;9.53;6.00;;;;;;;;;;4955011;28;20198;-87
2021/09/27 15:56:27;;;;;;;9.53;5.87;;;;;;;;;;4959261;28;20194;-88
2021/09/27 15:59:32;;;;;;;19.23;6.57;;;;;;;;;;4958468;28;20186;-88
2021/09/27 16:02:36;;;;;;;24.20;6.53;;;;;;;;;;4958659;28;20226;-87
2021/09/27 16:05:43;;;;;;;14.33;6.27;;;;;;;;;;4969165;28;20189;-88
2021/09/27 16:08:48;;;;;;;9.53;5.97;;;;;;;;;;4980491;28;20526;-87
2021/09/27 16:11:52;;;;;;;8.37;5.70;;;;;;;;;;4968913;28;20217;-88
2021/09/27 16:14:57;;;;;;;9.07;5.97;;;;;;;;;;4951285;28;20198;-87
2021/09/27 16:18:04;;;;;;;8.20;5.97;;;;;;;;;;4969261;28;20205;-87
2021/09/27 16:21:09;;;;;;;11.40;6.27;;;;;;;;;;4958059;28;20218;-87
2021/09/27 16:24:14;;;;;;;7.13;6.27;;;;;;;;;;4974923;28;20546;-86
2021/09/27 16:27:18;;;;;;;8.03;6.23;;;;;;;;;;4957779;28;20535;-86
2021/09/27 16:30:22;;;;;;;7.20;6.03;;;;;;;;;;4953751;28;20210;-86
2021/09/27 16:33:26;;;;;;;7.20;6.50;;;;;;;;;;4968399;28;20515;-86
2021/09/27 16:36:31;;;;;;;7.57;6.67;;;;;;;;;;4957685;28;20186;-86
2021/09/27 16:39:37;;;;;;;7.10;6.27;;;;;;;;;;4968211;28;20190;-86
2021/09/27 16:42:40;;;;;;;10.27;6.73;;;;;;;;;;4968235;28;20225;-86
2021/09/27 16:45:45;;;;;;;7.23;5.97;;;;;;;;;;4968712;28;20185;-86
2021/09/27 16:48:49;;;;;;;7.33;6.63;;;;;;;;;;4955305;28;20198;-86
2021/09/27 16:51:55;;;;;;;10.53;6.70;;;;;;;;;;4938187;28;20634;-86
2021/09/27 16:55:00;;;;;;;9.87;7.07;;;;;;;;;;4958656;28;20194;-86
2021/09/27 16:58:04;;;;;;;10.10;7.50;;;;;;;;;;4956626;28;20198;-87
2021/09/27 17:01:09;;;;;;;11.57;7.27;;;;;;;;;;4967752;28;20244;-86
2021/09/27 17:04:14;;;;;;;8.40;7.53;;;;;;;;;;4968024;28;20186;-87
2021/09/27 17:07:19;;;;;;;8.30;7.50;;;;;;;;;;4966970;28;20213;-86
2021/09/27 17:10:23;;;;;;;7.90;6.87;;;;;;;;;;4977652;28;20210;-86
2021/09/27 17:13:27;;;;;;;7.70;6.90;;;;;;;;;;4940032;28;20199;-86
2021/09/27 17:19:54;;;;;;;10.20;7.70;;;;;;;;;;4949200;28;20187;-86
2021/09/27 17:23:04;;;;;;;7.90;6.63;;;;;;;;;;4938296;28;20189;-86
2021/09/27 17:26:11;;;;;;;8.57;7.10;;;;;;;;;;4969048;28;20182;-86
2021/09/27 17:29:18;;;;;;;8.53;7.30;;;;;;;;;;4968316;28;20190;-86
2021/09/27 17:32:22;;;;;;;9.83;8.03;;;;;;;;;;4959654;28;20234;-86
2021/09/27 17:35:29;;;;;;;7.90;7.10;;;;;;;;;;4949295;28;20207;-86
2021/09/27 17:38:34;;;;;;;8.13;6.87;;;;;;;;;;4948805;28;20199;-86
2021/09/27 17:41:41;;;;;;;8.03;7.17;;;;;;;;;;4948400;28;20222;-86
2021/09/27 17:44:45;;;;;;;9.17;7.60;;;;;;;;;;4948508;28;20194;-86
2021/09/27 17:47:50;;;;;;;7.60;6.50;;;;;;;;;;4965324;28;20197;-85
2021/09/27 17:50:54;;;;;;;8.03;7.23;;;;;;;;;;4967453;28;20229;-86
2021/09/27 17:53:59;;;;;;;8.20;7.23;;;;;;;;;;4967769;28;20649;-86
2021/09/27 17:57:03;;;;;;;8.03;7.13;;;;;;;;;;4967212;28;20190;-86
2021/09/27 18:00:12;;;;;;;8.07;7.23;;;;;;;;;;4959712;28;20666;-86
2021/09/27 18:03:17;;;;;;;8.67;7.37;;;;;;;;;;4972245;28;20665;-87
2021/09/27 18:06:21;;;;;;;10.17;7.70;;;;;;;;;;4967358;28;20186;-86
2021/09/27 18:09:29;;;;;;;10.67;7.67;;;;;;;;;;4968262;28;20182;-86
2021/09/27 18:12:36;;;;;;;9.50;7.47;;;;;;;;;;4959270;28;20250;-87
2021/09/27 18:15:40;;;;;;;12.93;7.23;;;;;;;;;;4949051;28;20638;-86
2021/09/27 18:18:44;;;;;;;8.13;7.33;;;;;;;;;;4961863;28;20186;-86
2021/09/27 18:21:48;;;;;;;10.47;7.67;;;;;;;;;;4955603;28;20225;-86
2021/09/27 18:24:53;;;;;;;10.03;7.50;;;;;;;;;;4956916;28;20190;-86
2021/09/27 18:27:57;;;;;;;8.37;7.20;;;;;;;;;;4958335;28;20186;-87
2021/09/27 18:31:04;;;;;;;10.63;7.53;;;;;;;;;;4967416;28;20225;-86
2021/09/27 18:34:08;;;;;;;11.37;7.57;;;;;;;;;;4956059;28;20202;-86
2021/09/27 18:37:12;;;;;;;17.13;7.73;;;;;;;;;;4967281;28;20182;-86
2021/09/27 18:40:17;;;;;;;20.07;8.43;;;;;;;;;;4966712;28;20190;-86
2021/09/27 18:43:22;;;;;;;14.83;7.63;;;;;;;;;;4956115;28;20629;-86
2021/09/27 18:46:26;;;;;;;10.33;8.27;;;;;;;;;;4956012;28;20190;-86
2021/09/27 18:49:31;;;;;;;9.63;7.73;;;;;;;;;;4961344;28;20705;-86
2021/09/27 18:52:35;;;;;;;9.17;8.13;;;;;;;;;;4966762;28;20217;-86
2021/09/27 18:55:39;;;;;;;9.00;7.47;;;;;;;;;;4956131;28;20194;-87
2021/09/27 18:58:43;;;;;;;9.20;7.40;;;;;;;;;;4955830;28;20198;-86
2021/09/27 19:01:48;;;;;;;9.37;7.50;;;;;;;;;;4955869;28;20226;-86
2021/09/27 19:04:52;;;;;;;11.57;8.03;;;;;;;;;;4966356;28;20190;-86
2021/09/27 19:07:59;;;;;;;9.83;8.00;;;;;;;;;;4956266;28;20194;-86
2021/09/27 19:11:05;;;;;;;10.33;8.43;;;;;;;;;;4970240;28;21026;-86
2021/09/27 19:14:10;;;;;;;9.57;7.90;;;;;;;;;;4959128;28;20232;-86